createdAt,value
2017-08-24T00:00:38.635Z,5.47
2017-08-24T00:03:07.687Z,4.97
2017-08-24T00:05:36.748Z,6.60
2017-08-24T00:08:05.817Z,5.57
2017-08-24T00:10:34.874Z,9.57
2017-08-24T00:13:03.952Z,7.70
2017-08-24T00:15:33.000Z,6.97
2017-08-24T00:18:02.095Z,5.50
2017-08-24T00:20:31.512Z,7.00
2017-08-24T00:23:00.883Z,7.17
2017-08-24T00:25:29.911Z,6.77
2017-08-24T00:27:58.999Z,10.13
2017-08-24T00:30:43.295Z,8.17
2017-08-24T00:33:13.459Z,7.50
2017-08-24T00:35:42.519Z,7.10
2017-08-24T00:38:11.601Z,9.87
2017-08-24T00:40:40.678Z,17.80
2017-08-24T00:43:09.786Z,19.93
2017-08-24T00:45:38.864Z,19.37
2017-08-24T00:48:08.172Z,21.17
2017-08-24T00:50:37.232Z,25.90
2017-08-24T00:53:06.364Z,21.90
2017-08-24T00:55:35.447Z,21.37
2017-08-24T00:58:04.503Z,23.83
2017-08-24T01:00:33.575Z,23.23
2017-08-24T01:03:02.856Z,23.97
2017-08-24T01:05:31.932Z,24.77
2017-08-24T01:08:01.004Z,35.10
2017-08-24T01:10:30.312Z,34.20
2017-08-24T01:12:59.382Z,33.73
2017-08-24T01:15:28.461Z,42.93
2017-08-24T01:17:57.519Z,36.70
2017-08-24T01:20:26.622Z,40.40
2017-08-24T01:22:55.669Z,37.77
2017-08-24T01:25:24.736Z,40.00
2017-08-24T01:27:53.815Z,38.20
2017-08-24T01:30:23.208Z,34.47
2017-08-24T01:32:52.279Z,33.07
2017-08-24T01:35:21.346Z,35.73
2017-08-24T01:37:50.413Z,35.30
2017-08-24T01:40:19.568Z,38.93
2017-08-24T01:42:48.640Z,39.67
2017-08-24T01:45:17.717Z,32.70
2017-08-24T01:47:46.865Z,31.20
2017-08-24T01:50:15.937Z,28.00
2017-08-24T01:52:45.016Z,33.20
2017-08-24T01:55:14.143Z,30.00
2017-08-24T01:57:43.222Z,29.20
2017-08-24T02:00:12.265Z,29.53
2017-08-24T02:02:41.356Z,27.63
2017-08-24T02:05:10.746Z,26.07
2017-08-24T02:07:39.796Z,31.50
2017-08-24T02:10:09.537Z,30.07
2017-08-24T02:12:38.595Z,28.07
2017-08-24T02:15:07.795Z,29.70
2017-08-24T02:17:36.899Z,27.20
2017-08-24T02:20:05.960Z,28.20
2017-08-24T02:22:35.228Z,24.20
2017-08-24T02:25:04.296Z,30.63
2017-08-24T02:27:33.378Z,25.57
2017-08-24T02:30:02.445Z,26.73
2017-08-24T02:32:32.392Z,28.20
2017-08-24T02:35:01.471Z,26.60
2017-08-24T02:37:30.531Z,25.57
2017-08-24T02:39:59.574Z,28.73
2017-08-24T02:42:28.691Z,30.40
2017-08-24T02:44:58.176Z,29.30
2017-08-24T02:47:27.244Z,35.40
2017-08-24T02:49:56.324Z,30.50
2017-08-24T02:52:25.531Z,37.40
2017-08-24T02:54:54.623Z,31.13
2017-08-24T02:57:23.685Z,36.17
2017-08-24T02:59:52.757Z,37.20
2017-08-24T03:02:22.624Z,35.40
2017-08-24T03:04:51.673Z,34.80
2017-08-24T03:07:20.727Z,32.83
2017-08-24T03:09:49.793Z,39.60
2017-08-24T03:12:18.846Z,43.37
2017-08-24T03:14:47.913Z,39.20
2017-08-24T03:17:16.983Z,41.70
2017-08-24T03:19:46.073Z,43.27
2017-08-24T03:22:15.932Z,44.20
2017-08-24T03:24:45.821Z,42.10
2017-08-24T03:27:14.927Z,41.20
2017-08-24T03:29:43.975Z,47.57
2017-08-24T03:32:13.053Z,51.60
2017-08-24T03:34:42.161Z,50.57
2017-08-24T03:37:11.382Z,44.80
2017-08-24T03:39:40.456Z,49.17
2017-08-24T03:42:09.532Z,46.80
2017-08-24T03:44:38.613Z,45.77
2017-08-24T03:47:07.679Z,36.67
2017-08-24T03:49:36.791Z,39.63
2017-08-24T03:52:05.827Z,34.27
2017-08-24T03:54:34.897Z,32.73
2017-08-24T03:57:03.975Z,31.20
2017-08-24T03:59:33.072Z,36.07
2017-08-24T04:02:02.518Z,36.87
2017-08-24T04:04:31.554Z,34.33
2017-08-24T04:07:00.639Z,33.90
2017-08-24T04:09:29.700Z,35.47
2017-08-24T04:11:58.791Z,33.27
2017-08-24T04:14:27.849Z,31.93
2017-08-24T04:16:56.923Z,30.20
2017-08-24T04:19:26.018Z,33.10
2017-08-24T04:21:55.063Z,31.60
2017-08-24T04:24:24.887Z,31.50
2017-08-24T04:26:54.722Z,28.40
2017-08-24T04:29:23.784Z,27.93
2017-08-24T04:31:52.871Z,29.47
2017-08-24T04:34:21.933Z,30.50
2017-08-24T04:36:54.104Z,32.20
2017-08-24T04:39:23.175Z,27.30
2017-08-24T04:41:52.264Z,29.60
2017-08-24T04:44:21.319Z,27.97
2017-08-24T04:46:51.185Z,24.30
2017-08-24T04:49:20.246Z,33.47
2017-08-24T04:51:50.060Z,20.83
2017-08-24T04:54:19.145Z,23.30
2017-08-24T04:56:48.210Z,20.60
2017-08-24T04:59:17.302Z,18.57
2017-08-24T05:01:46.369Z,20.20
2017-08-24T05:04:15.580Z,26.40
2017-08-24T05:06:44.674Z,24.03
2017-08-24T05:09:13.735Z,24.40
2017-08-24T05:11:42.820Z,24.20
2017-08-24T05:14:12.637Z,24.63
2017-08-24T05:16:42.483Z,21.80
2017-08-24T05:19:11.535Z,20.13
2017-08-24T05:21:42.904Z,22.27
2017-08-24T05:24:13.004Z,23.53
2017-08-24T05:26:42.056Z,26.80
2017-08-24T05:29:11.292Z,26.97
2017-08-24T05:31:41.282Z,26.73
2017-08-24T05:34:10.685Z,25.43
2017-08-24T05:36:39.765Z,26.47
2017-08-24T05:39:08.879Z,24.00
2017-08-24T05:41:38.153Z,27.10
2017-08-24T05:44:07.196Z,27.23
2017-08-24T05:46:37.035Z,32.23
2017-08-24T05:49:06.207Z,24.53
2017-08-24T05:51:35.307Z,26.20
2017-08-24T05:54:04.441Z,35.17
2017-08-24T05:56:34.240Z,28.93
2017-08-24T05:59:03.356Z,30.23
2017-08-24T06:01:32.402Z,38.00
2017-08-24T06:04:01.484Z,28.17
2017-08-24T06:06:30.531Z,30.00
2017-08-24T06:08:59.587Z,32.23
2017-08-24T06:11:29.435Z,26.40
2017-08-24T06:13:58.494Z,29.73
2017-08-24T06:16:27.573Z,26.43
2017-08-24T06:18:56.646Z,31.80
2017-08-24T06:21:25.713Z,35.47
2017-08-24T06:23:55.052Z,26.23
2017-08-24T06:26:24.176Z,31.23
2017-08-24T06:28:53.272Z,32.20
2017-08-24T06:31:22.336Z,26.33
2017-08-24T06:33:51.629Z,30.70
2017-08-24T06:36:20.706Z,30.07
2017-08-24T06:38:49.764Z,27.80
2017-08-24T06:41:18.836Z,32.03
2017-08-24T06:43:48.013Z,26.87
2017-08-24T06:46:17.092Z,31.90
2017-08-24T06:48:46.180Z,33.17
2017-08-24T06:51:15.243Z,29.53
2017-08-24T06:53:44.329Z,31.47
2017-08-24T06:56:13.381Z,29.90
2017-08-24T06:58:42.466Z,26.80
2017-08-24T07:01:11.556Z,32.70
2017-08-24T07:03:40.623Z,32.00
2017-08-24T07:06:09.694Z,30.13
2017-08-24T07:08:38.797Z,30.57
2017-08-24T07:11:07.923Z,31.63
2017-08-24T07:13:36.993Z,29.80
2017-08-24T07:16:06.820Z,28.77
2017-08-24T07:18:35.883Z,28.63
2017-08-24T07:21:04.972Z,28.73
2017-08-24T07:23:34.047Z,29.00
2017-08-24T07:26:03.137Z,29.80
2017-08-24T07:28:32.183Z,29.07
2017-08-24T07:31:02.983Z,28.97
2017-08-24T07:33:32.830Z,28.07
2017-08-24T07:36:01.940Z,32.80
2017-08-24T07:38:31.016Z,28.00
2017-08-24T07:41:00.102Z,29.40
2017-08-24T07:43:29.158Z,30.07
2017-08-24T07:45:58.229Z,33.33
2017-08-24T07:48:27.309Z,26.40
2017-08-24T07:50:56.455Z,31.57
2017-08-24T07:53:25.552Z,26.63
2017-08-24T07:55:55.420Z,28.13
2017-08-24T07:58:24.470Z,26.77
2017-08-24T08:00:53.575Z,28.20
2017-08-24T08:03:22.623Z,29.20
2017-08-24T08:05:51.693Z,25.97
2017-08-24T08:08:20.856Z,28.40
2017-08-24T08:10:49.956Z,30.73
2017-08-24T08:13:19.037Z,29.73
2017-08-24T08:15:48.152Z,27.10
2017-08-24T08:18:17.221Z,26.10
2017-08-24T08:20:46.291Z,31.23
2017-08-24T08:23:15.371Z,28.43
2017-08-24T08:25:45.291Z,25.20
2017-08-24T08:28:14.442Z,26.10
2017-08-24T08:30:43.658Z,24.27
2017-08-24T08:33:12.720Z,25.07
2017-08-24T08:35:41.794Z,24.80
2017-08-24T08:38:11.612Z,24.53
2017-08-24T08:40:40.672Z,22.90
2017-08-24T08:43:09.899Z,22.57
2017-08-24T08:45:39.697Z,24.00
2017-08-24T08:48:09.039Z,24.33
2017-08-24T08:50:38.090Z,21.37
2017-08-24T08:53:07.496Z,22.93
2017-08-24T08:55:36.589Z,21.77
2017-08-24T08:58:05.677Z,22.13
2017-08-24T09:00:34.768Z,22.67
2017-08-24T09:03:03.864Z,23.60
2017-08-24T09:05:33.711Z,23.63
2017-08-24T09:08:02.828Z,24.30
2017-08-24T09:10:31.888Z,22.87
2017-08-24T09:13:00.967Z,20.57
2017-08-24T09:15:30.033Z,20.70
2017-08-24T09:17:59.109Z,21.30
2017-08-24T09:20:28.185Z,22.83
2017-08-24T09:22:57.269Z,20.90
2017-08-24T09:25:26.332Z,19.33
2017-08-24T09:27:56.161Z,17.97
2017-08-24T09:30:26.000Z,18.40
2017-08-24T09:32:55.084Z,24.53
2017-08-24T09:35:24.156Z,19.87
2017-08-24T09:37:53.221Z,17.90
2017-08-24T09:40:22.423Z,22.30
2017-08-24T09:42:51.500Z,20.80
2017-08-24T09:45:20.576Z,19.03
2017-08-24T09:47:49.648Z,19.20
2017-08-24T09:50:18.699Z,17.67
2017-08-24T09:52:48.131Z,27.90
2017-08-24T09:55:17.156Z,20.73
2017-08-24T09:57:46.247Z,17.37
2017-08-24T10:00:15.304Z,17.67
2017-08-24T10:02:45.254Z,17.83
2017-08-24T10:05:14.734Z,18.93
2017-08-24T10:07:43.853Z,18.63
2017-08-24T10:10:12.940Z,22.43
2017-08-24T10:12:42.032Z,19.83
2017-08-24T10:15:11.260Z,24.07
2017-08-24T10:17:40.321Z,18.63
2017-08-24T10:20:09.433Z,19.13
2017-08-24T10:22:38.493Z,21.40
2017-08-24T10:25:07.583Z,22.20
2017-08-24T10:27:36.649Z,24.30
2017-08-24T10:30:05.743Z,24.93
2017-08-24T10:32:34.786Z,24.13
2017-08-24T10:35:03.850Z,24.33
2017-08-24T10:37:32.918Z,20.97
2017-08-24T10:40:02.004Z,21.17
2017-08-24T10:42:31.669Z,22.30
2017-08-24T10:45:00.726Z,21.33
2017-08-24T10:47:29.874Z,21.17
2017-08-24T10:49:58.926Z,20.73
2017-08-24T10:52:27.996Z,22.00
2017-08-24T10:54:57.059Z,20.63
2017-08-24T10:57:26.160Z,18.80
2017-08-24T10:59:55.207Z,20.40
2017-08-24T11:02:24.278Z,20.77
2017-08-24T11:04:53.364Z,23.47
2017-08-24T11:07:22.430Z,22.13
2017-08-24T11:09:51.496Z,23.30
2017-08-24T11:12:20.832Z,22.40
2017-08-24T11:14:49.903Z,21.60
2017-08-24T11:17:18.951Z,21.40
2017-08-24T11:19:48.029Z,21.63
2017-08-24T11:22:17.116Z,21.70
2017-08-24T11:24:46.209Z,23.13
2017-08-24T11:27:15.432Z,22.13
2017-08-24T11:29:44.511Z,19.83
2017-08-24T11:32:13.611Z,22.37
2017-08-24T11:34:42.688Z,24.83
2017-08-24T11:37:11.715Z,23.43
2017-08-24T11:39:40.815Z,22.30
2017-08-24T11:42:09.865Z,20.80
2017-08-24T11:44:38.936Z,20.33
2017-08-24T11:47:07.992Z,18.80
2017-08-24T11:49:37.056Z,19.13
2017-08-24T11:52:06.152Z,17.87
2017-08-24T11:54:35.221Z,18.63
2017-08-24T11:57:04.714Z,19.17
2017-08-24T11:59:33.923Z,20.30
2017-08-24T12:02:03.032Z,18.93
2017-08-24T12:04:32.085Z,19.73
2017-08-24T12:07:01.169Z,21.67
2017-08-24T12:09:30.247Z,21.77
2017-08-24T12:11:59.300Z,20.40
2017-08-24T12:14:28.364Z,20.07
2017-08-24T12:16:57.464Z,18.00
2017-08-24T12:19:26.505Z,18.87
2017-08-24T12:21:55.591Z,18.23
2017-08-24T12:24:24.661Z,19.57
2017-08-24T12:26:53.735Z,21.57
2017-08-24T12:29:22.825Z,22.23
2017-08-24T12:31:51.885Z,21.07
2017-08-24T12:34:20.976Z,20.10
2017-08-24T12:36:50.489Z,22.00
2017-08-24T12:39:19.545Z,24.17
2017-08-24T12:41:48.597Z,22.43
2017-08-24T12:44:17.667Z,20.60
2017-08-24T12:46:46.873Z,19.40
2017-08-24T12:49:15.952Z,21.30
2017-08-24T12:51:45.041Z,18.03
2017-08-24T12:54:14.119Z,18.27
2017-08-24T12:56:44.178Z,17.93
2017-08-24T12:59:13.238Z,17.77
2017-08-24T13:01:42.979Z,17.33
2017-08-24T13:04:12.049Z,20.43
2017-08-24T13:06:41.117Z,18.60
2017-08-24T13:09:10.200Z,16.57
2017-08-24T13:11:41.044Z,16.43
2017-08-24T13:14:10.433Z,15.90
2017-08-24T13:16:40.268Z,17.57
2017-08-24T13:19:09.350Z,15.23
2017-08-24T13:21:38.424Z,16.60
2017-08-24T13:24:07.787Z,16.43
2017-08-24T13:26:37.980Z,18.60
2017-08-24T13:29:07.308Z,18.07
2017-08-24T13:31:36.355Z,16.50
2017-08-24T13:34:05.542Z,14.83
2017-08-24T13:36:35.359Z,21.27
2017-08-24T13:39:04.537Z,15.37
2017-08-24T13:41:33.620Z,13.13
2017-08-24T13:44:02.682Z,13.87
2017-08-24T13:46:31.774Z,11.57
2017-08-24T13:49:00.858Z,13.83
2017-08-24T13:51:29.924Z,11.77
2017-08-24T13:53:59.335Z,11.60
2017-08-24T13:56:28.387Z,11.70
2017-08-24T13:58:57.431Z,11.47
2017-08-24T14:01:26.615Z,12.37
2017-08-24T14:03:55.695Z,12.30
2017-08-24T14:06:24.739Z,12.90
2017-08-24T14:08:53.832Z,11.90
2017-08-24T14:11:22.901Z,12.70
2017-08-24T14:13:52.007Z,11.33
2017-08-24T14:16:21.086Z,11.17
2017-08-24T14:18:50.161Z,10.53
2017-08-24T14:21:19.230Z,13.10
2017-08-24T14:23:48.339Z,11.60
2017-08-24T14:26:17.423Z,11.13
2017-08-24T14:28:46.496Z,10.83
2017-08-24T14:31:15.625Z,11.60
2017-08-24T14:33:44.684Z,11.30
2017-08-24T14:36:13.780Z,11.90
2017-08-24T14:38:42.840Z,11.17
2017-08-24T14:41:11.904Z,9.40
2017-08-24T14:43:40.985Z,10.90
2017-08-24T14:46:10.060Z,7.03
2017-08-24T14:48:39.091Z,7.60
2017-08-24T14:51:08.227Z,7.53
2017-08-24T14:53:37.305Z,7.33
2017-08-24T14:56:06.445Z,9.77
2017-08-24T14:58:35.513Z,8.13
2017-08-24T15:01:04.561Z,9.27
2017-08-24T15:03:33.620Z,6.90
2017-08-24T15:06:02.691Z,7.37
2017-08-24T15:08:31.743Z,8.97
2017-08-24T15:11:00.789Z,6.87
2017-08-24T15:13:29.853Z,7.77
2017-08-24T15:15:58.919Z,7.67
2017-08-24T15:18:27.973Z,8.23
2017-08-24T15:20:57.045Z,6.57
2017-08-24T15:23:26.088Z,6.57
2017-08-24T15:25:55.156Z,6.90
2017-08-24T15:28:24.992Z,5.90
2017-08-24T15:30:54.250Z,7.13
2017-08-24T15:33:23.349Z,10.73
2017-08-24T15:35:52.395Z,6.23
2017-08-24T15:38:21.447Z,5.63
2017-08-24T15:40:50.522Z,5.50
2017-08-24T15:43:19.571Z,5.83
2017-08-24T15:45:48.700Z,8.37
2017-08-24T15:48:17.744Z,4.73
2017-08-24T15:50:46.905Z,5.43
2017-08-24T15:53:15.963Z,5.13
2017-08-24T15:55:45.017Z,5.07
2017-08-24T15:58:14.100Z,5.73
2017-08-24T16:00:43.168Z,5.80
2017-08-24T16:03:12.653Z,6.60
2017-08-24T16:05:41.725Z,5.37
2017-08-24T16:08:10.797Z,6.90
2017-08-24T16:10:39.868Z,5.90
2017-08-24T16:13:08.944Z,5.23
2017-08-24T16:15:38.028Z,5.67
2017-08-24T16:18:07.099Z,5.60
2017-08-24T16:20:36.177Z,23.87
2017-08-24T16:23:05.257Z,9.53
2017-08-24T16:25:34.412Z,8.10
2017-08-24T16:28:03.500Z,9.07
2017-08-24T16:30:32.544Z,7.53
2017-08-24T16:33:01.611Z,9.00
2017-08-24T16:35:30.663Z,6.50
2017-08-24T16:37:59.792Z,7.10
2017-08-24T16:40:28.851Z,8.97
2017-08-24T16:42:57.950Z,5.97
2017-08-24T16:45:26.971Z,8.97
2017-08-24T16:47:56.094Z,18.10
2017-08-24T16:50:25.164Z,21.90
2017-08-24T16:52:54.246Z,10.57
2017-08-24T16:55:23.284Z,6.60
2017-08-24T16:57:52.372Z,6.73
2017-08-24T17:00:21.432Z,9.00
2017-08-24T17:02:50.488Z,10.03
2017-08-24T17:05:20.984Z,12.07
2017-08-24T17:07:50.033Z,6.67
2017-08-24T17:10:19.116Z,7.03
2017-08-24T17:12:48.184Z,12.40
2017-08-24T17:15:17.458Z,5.47
2017-08-24T17:17:46.533Z,8.00
2017-08-24T17:20:15.597Z,5.47
2017-08-24T17:22:45.344Z,7.00
2017-08-24T17:25:14.437Z,5.50
2017-08-24T17:27:43.509Z,6.63
2017-08-24T17:30:12.624Z,6.27
2017-08-24T17:32:41.634Z,8.50
2017-08-24T17:35:10.877Z,7.00
2017-08-24T17:37:39.916Z,7.80
2017-08-24T17:40:09.041Z,5.90
2017-08-24T17:42:38.097Z,9.57
2017-08-24T17:45:08.332Z,6.37
2017-08-24T17:47:37.424Z,6.53
2017-08-24T17:50:06.511Z,6.30
2017-08-24T17:52:35.583Z,6.00
2017-08-24T17:55:04.658Z,5.60
2017-08-24T17:57:33.715Z,7.23
2017-08-24T18:00:02.821Z,6.83
2017-08-24T18:02:32.532Z,5.93
2017-08-24T18:05:01.613Z,5.37
2017-08-24T18:07:30.692Z,8.03
2017-08-24T18:09:59.768Z,10.50
2017-08-24T18:12:28.841Z,6.20
2017-08-24T18:14:57.911Z,6.23
2017-08-24T18:17:26.984Z,9.23
2017-08-24T18:19:56.033Z,5.93
2017-08-24T18:22:25.099Z,6.87
2017-08-24T18:24:54.180Z,7.10
2017-08-24T18:27:23.219Z,7.90
2017-08-24T18:29:52.296Z,5.73
2017-08-24T18:32:21.375Z,5.93
2017-08-24T18:34:50.435Z,5.20
2017-08-24T18:37:19.583Z,5.07
2017-08-24T18:39:48.675Z,5.57
2017-08-24T18:42:17.720Z,5.20
2017-08-24T18:44:46.789Z,7.00
2017-08-24T18:47:15.983Z,6.30
2017-08-24T18:49:45.041Z,5.10
2017-08-24T18:52:14.128Z,5.83
2017-08-24T18:54:43.177Z,5.37
2017-08-24T18:57:12.280Z,5.27
2017-08-24T18:59:41.360Z,8.03
2017-08-24T19:02:10.481Z,6.30
2017-08-24T19:04:39.554Z,4.63
2017-08-24T19:07:08.641Z,7.53
2017-08-24T19:09:37.697Z,8.63
2017-08-24T19:12:06.748Z,5.60
2017-08-24T19:14:35.832Z,4.83
2017-08-24T19:17:04.868Z,6.20
2017-08-24T19:19:33.936Z,4.93
2017-08-24T19:22:03.023Z,5.50
2017-08-24T19:24:32.104Z,5.80
2017-08-24T19:27:01.166Z,5.20
2017-08-24T19:29:30.295Z,6.10
2017-08-24T19:31:59.401Z,5.73
2017-08-24T19:34:28.439Z,5.03
2017-08-24T19:36:57.512Z,6.93
2017-08-24T19:39:26.578Z,5.20
2017-08-24T19:41:55.639Z,5.83
2017-08-24T19:44:24.711Z,6.43
2017-08-24T19:46:53.783Z,6.20
2017-08-24T19:49:22.840Z,7.67
2017-08-24T19:51:51.912Z,6.03
2017-08-24T19:54:20.982Z,7.10
2017-08-24T19:56:50.033Z,6.10
2017-08-24T19:59:19.098Z,5.97
2017-08-24T20:01:48.137Z,8.33
2017-08-24T20:04:17.225Z,6.07
2017-08-24T20:06:46.287Z,5.10
2017-08-24T20:09:15.353Z,6.30
2017-08-24T20:11:44.420Z,6.60
2017-08-24T20:14:13.475Z,5.80
2017-08-24T20:16:42.541Z,6.50
2017-08-24T20:19:11.916Z,11.03
2017-08-24T20:21:40.962Z,9.53
2017-08-24T20:24:10.072Z,7.73
2017-08-24T20:26:39.142Z,6.03
2017-08-24T20:29:08.228Z,5.53
2017-08-24T20:31:37.284Z,5.60
2017-08-24T20:34:06.350Z,5.20
2017-08-24T20:36:35.630Z,8.47
2017-08-24T20:39:04.731Z,5.57
2017-08-24T20:41:33.824Z,8.47
2017-08-24T20:44:02.907Z,6.13
2017-08-24T20:46:32.172Z,6.17
2017-08-24T20:49:01.265Z,9.83
2017-08-24T20:51:31.871Z,8.80
2017-08-24T20:54:00.932Z,6.43
2017-08-24T20:56:29.992Z,7.40
2017-08-24T20:58:59.067Z,9.80
2017-08-24T21:01:28.140Z,12.50
2017-08-24T21:03:57.395Z,7.40
2017-08-24T21:06:26.468Z,8.37
2017-08-24T21:08:55.528Z,7.87
2017-08-24T21:11:24.619Z,9.27
2017-08-24T21:13:53.670Z,11.73
2017-08-24T21:16:22.754Z,8.63
2017-08-24T21:18:51.803Z,9.33
2017-08-24T21:21:20.856Z,9.40
2017-08-24T21:23:49.933Z,9.50
2017-08-24T21:26:19.003Z,8.47
2017-08-24T21:28:48.102Z,10.97
2017-08-24T21:31:17.155Z,15.20
2017-08-24T21:33:46.235Z,8.57
2017-08-24T21:36:15.315Z,8.17
2017-08-24T21:38:44.396Z,8.50
2017-08-24T21:41:13.486Z,8.90
2017-08-24T21:43:42.557Z,10.20
2017-08-24T21:46:12.196Z,11.43
2017-08-24T21:48:41.240Z,9.20
2017-08-24T21:51:10.311Z,8.00
2017-08-24T21:53:39.370Z,10.40
2017-08-24T21:56:08.484Z,7.53
2017-08-24T21:58:37.524Z,8.73
2017-08-24T22:01:06.624Z,7.57
2017-08-24T22:03:35.672Z,7.47
2017-08-24T22:06:04.754Z,14.17
2017-08-24T22:08:33.840Z,9.70
2017-08-24T22:11:03.083Z,7.90
2017-08-24T22:13:32.137Z,8.47
2017-08-24T22:16:01.208Z,6.40
2017-08-24T22:18:30.265Z,10.63
2017-08-24T22:20:59.714Z,8.10
2017-08-24T22:23:28.748Z,7.17
2017-08-24T22:25:57.928Z,6.47
2017-08-24T22:28:27.036Z,9.03
2017-08-24T22:30:56.136Z,8.20
2017-08-24T22:33:25.160Z,5.63
2017-08-24T22:35:54.221Z,7.70
2017-08-24T22:38:23.292Z,5.63
2017-08-24T22:40:52.709Z,5.20
2017-08-24T22:43:21.744Z,5.17
2017-08-24T22:45:50.840Z,4.90
2017-08-24T22:48:19.891Z,6.53
2017-08-24T22:50:49.106Z,6.77
2017-08-24T22:53:23.772Z,5.33
2017-08-24T22:55:58.313Z,8.37
2017-08-24T22:58:32.974Z,6.03
2017-08-24T23:01:07.560Z,6.33
2017-08-24T23:03:42.225Z,7.00
2017-08-24T23:06:11.283Z,7.90
2017-08-24T23:08:40.626Z,8.33
2017-08-24T23:11:10.656Z,9.27
2017-08-24T23:13:39.705Z,8.70
2017-08-24T23:16:08.754Z,9.83
2017-08-24T23:18:37.828Z,9.70
2017-08-24T23:21:06.912Z,9.57
2017-08-24T23:23:35.972Z,10.10
2017-08-24T23:26:05.106Z,11.17
2017-08-24T23:28:34.137Z,9.83
2017-08-24T23:31:03.234Z,10.43
2017-08-24T23:33:32.306Z,8.40
2017-08-24T23:36:01.369Z,8.50
2017-08-24T23:38:30.480Z,9.90
2017-08-24T23:40:59.508Z,8.57
2017-08-24T23:43:28.594Z,9.40
2017-08-24T23:45:57.639Z,9.23
2017-08-24T23:48:26.726Z,10.13
2017-08-24T23:50:55.775Z,11.17
2017-08-24T23:53:24.849Z,9.23
2017-08-24T23:55:53.911Z,10.50
2017-08-24T23:58:22.976Z,8.97
